VTCH

Details ICAO VTCH (HGN)
Name Mae Hong Son
Region Thailand
Timezone Asia/Bangkok (UTC+7.0)
Plans Departing 5
Arriving 11
Stats Elevation 929 ft / 283 m (AMSL)
Location 19.301468° 97.975872°
Runways 1
Magnetic Variation 0.707° W
Sunrise 2017-12-14 23:55:16 UTC / 2017-12-15 06:55:16 Local
Sunset 2017-12-15 10:53:46 UTC / 2017-12-15 17:53:46 Local
Advertisement - Login to hide

Runways

ID Width Length Bearing (true) Bearing (mag) Surface Threshold Offset Overrun Length
11 95 ft / 29 m 6,555 ft / 1,998 m 108.02° 108.73° Asphalt 0 ft / 0 m 197 ft / 60 m
29 95 ft / 29 m 6,555 ft / 1,998 m 288.03° 288.74° Asphalt 0 ft / 0 m 0 ft / 0 m

Map

Weather


0- 5 10 15 20 25 30 35+ Temperature / ° C

Clouds and Precipitation
Forecast for 2017-12-15 06:00 UTC. Updated an hour ago

Ground ~20,000 ft ~40,000 ft Winds

METAR

VTCH 150200Z 31003KT 260V050 3000 BR BKN015 18/15 Q1018

TAF

TAF VTCH 142300Z 1500/1524 VRB02KT 9999 FEW035

Frequencies

Tower 122.30 MHz TWR
Approach 126.20 MHz APP
Warning: Do not use this data for real-world aviation or navigation. No guarantee of current accuracy is given.